Time;durP1;ratioP1;P1;durP2;ratioP2;P2;SDS_P1;SDS_P2;PMS_P1;PMS_P2;Temp;Humidity;BMP_temperature;BMP_pressure;BME280_temperature;BME280_humidity;BME280_pressure;Samples;Min_cycle;Max_cycle;Signal;HPM_P1;HPM_P2
2022/12/18 00:01:23;;;;;;;5.90;4.17;;;-0.40;99.90;;;;;;5044997;28;20765;-38
2022/12/18 00:03:49;;;;;;;5.23;3.93;;;-0.40;99.90;;;;;;5047070;28;20834;-37
2022/12/18 00:06:15;;;;;;;5.53;4.23;;;-0.50;99.90;;;;;;5048068;28;20456;-39
2022/12/18 00:08:43;;;;;;;10.30;4.10;;;-0.30;99.90;;;;;;5046434;28;20440;-38
2022/12/18 00:11:11;;;;;;;4.93;4.13;;;-0.30;99.90;;;;;;5048794;28;20877;-40
2022/12/18 00:13:37;;;;;;;6.70;4.80;;;-0.60;99.90;;;;;;5045715;28;20507;-37
2022/12/18 00:16:10;;;;;;;4.93;3.83;;;-0.40;99.90;;;;;;5045473;28;20495;-38
2022/12/18 00:18:35;;;;;;;5.93;4.47;;;-0.40;99.90;;;;;;5030446;28;20450;-40
2022/12/18 00:21:04;;;;;;;4.90;3.87;;;-0.50;99.90;;;;;;5027844;28;20433;-38
2022/12/18 00:23:30;;;;;;;3.83;3.47;;;-0.30;99.90;;;;;;5027088;28;20675;-33
2022/12/18 00:26:07;;;;;;;6.93;4.90;;;-0.40;99.90;;;;;;5027890;28;20396;-39
2022/12/18 00:28:32;;;;;;;6.20;4.70;;;-0.30;99.90;;;;;;5026873;28;20676;-39
2022/12/18 00:31:06;;;;;;;5.83;3.90;;;-0.30;99.90;;;;;;5027424;28;20407;-40
2022/12/18 00:33:33;;;;;;;5.80;4.50;;;-0.20;99.90;;;;;;5025407;28;20233;-40
2022/12/18 00:36:22;;;;;;;4.87;3.83;;;-0.30;99.90;;;;;;5027369;28;20444;-35
2022/12/18 00:38:48;;;;;;;5.57;3.87;;;-0.50;99.90;;;;;;5036807;28;20424;-35
2022/12/18 00:42:55;;;;;;;5.37;4.27;;;-0.20;99.90;;;;;;5047176;28;20877;-39
2022/12/18 00:44:05;;;;;;;5.77;3.93;;;-0.20;99.90;;;;;;5047123;28;20770;-39
2022/12/18 00:46:31;;;;;;;5.70;4.53;;;-0.50;99.90;;;;;;5028688;28;20427;-37
2022/12/18 00:48:56;;;;;;;6.20;3.87;;;-0.20;99.90;;;;;;5027569;28;20444;-36
2022/12/18 00:51:22;;;;;;;6.20;4.70;;;-0.20;99.90;;;;;;5027309;28;20179;-38
2022/12/18 00:53:48;;;;;;;7.73;5.00;;;-0.30;99.90;;;;;;5027198;28;20629;-39
2022/12/18 00:56:13;;;;;;;5.20;3.80;;;-0.10;99.90;;;;;;5027419;28;20939;-38
2022/12/18 00:58:39;;;;;;;8.70;3.77;;;-0.40;99.90;;;;;;5027003;28;20186;-36
2022/12/18 01:01:05;;;;;;;6.33;3.93;;;-0.30;99.90;;;;;;5026091;28;20178;-37
2022/12/18 01:03:31;;;;;;;5.67;4.03;;;-0.40;99.90;;;;;;5026631;28;20271;-36
2022/12/18 01:05:57;;;;;;;6.27;4.23;;;-0.30;99.90;;;;;;5027815;28;20532;-37
2022/12/18 01:08:23;;;;;;;7.10;4.60;;;-0.50;99.90;;;;;;5042462;28;20194;-37
2022/12/18 01:10:49;;;;;;;5.50;4.60;;;-0.40;99.90;;;;;;5047147;28;20194;-38
2022/12/18 01:13:14;;;;;;;7.87;4.80;;;-0.30;99.90;;;;;;5046553;28;20416;-37
2022/12/18 01:15:40;;;;;;;5.30;4.00;;;-0.40;99.90;;;;;;5046919;28;20276;-35
2022/12/18 01:18:06;;;;;;;9.53;4.40;;;-0.20;99.90;;;;;;5047475;28;20505;-37
2022/12/18 01:20:32;;;;;;;7.60;4.20;;;-0.30;99.90;;;;;;5047020;28;20424;-38
2022/12/18 01:22:58;;;;;;;4.37;3.77;;;-0.10;99.90;;;;;;5047251;28;20391;-40
2022/12/18 01:25:23;;;;;;;6.30;4.20;;;-0.40;99.90;;;;;;5046879;28;20480;-38
2022/12/18 01:27:49;;;;;;;6.17;4.30;;;-0.40;99.90;;;;;;5047055;28;20394;-35
2022/12/18 01:30:15;;;;;;;5.17;4.17;;;-0.40;99.90;;;;;;5046765;28;20235;-38
2022/12/18 01:32:40;;;;;;;8.50;4.43;;;-0.30;99.90;;;;;;5046703;28;20223;-40
2022/12/18 01:35:07;;;;;;;7.33;5.07;;;-0.40;99.90;;;;;;5047135;28;20252;-37
2022/12/18 01:37:32;;;;;;;4.80;4.13;;;-0.30;99.90;;;;;;5046636;28;20201;-38
2022/12/18 01:39:58;;;;;;;6.10;4.57;;;-0.30;99.90;;;;;;5045229;28;20387;-35
2022/12/18 01:42:25;;;;;;;5.97;4.30;;;-0.10;99.90;;;;;;5045264;28;20212;-40
2022/12/18 01:45:00;;;;;;;6.10;4.50;;;-0.20;99.90;;;;;;5038659;28;20178;-35
2022/12/18 01:47:31;;;;;;;6.07;4.87;;;-0.20;99.90;;;;;;5050727;28;20419;-36
2022/12/18 01:50:01;;;;;;;7.20;4.40;;;-0.30;99.90;;;;;;5050576;28;20752;-39
2022/12/18 01:52:30;;;;;;;6.43;4.90;;;-0.30;99.90;;;;;;5050511;28;20473;-42
2022/12/18 01:54:56;;;;;;;5.73;4.33;;;-0.30;99.90;;;;;;5049799;28;20460;-42
2022/12/18 01:57:23;;;;;;;5.47;4.23;;;-0.10;99.90;;;;;;5050762;28;20474;-38
2022/12/18 01:59:52;;;;;;;9.10;4.33;;;-0.30;99.90;;;;;;5049660;28;20421;-35
2022/12/18 02:02:19;;;;;;;5.30;3.97;;;-0.20;99.90;;;;;;5049819;28;20419;-37
2022/12/18 02:04:45;;;;;;;7.40;4.67;;;-0.20;99.90;;;;;;5049142;28;20982;-38
2022/12/18 02:07:23;;;;;;;6.00;4.17;;;-0.30;99.90;;;;;;5050749;28;20444;-37
2022/12/18 02:09:53;;;;;;;5.20;3.73;;;-0.40;99.90;;;;;;5049608;28;20419;-41
2022/12/18 02:12:25;;;;;;;5.50;4.17;;;-0.30;99.90;;;;;;5049989;28;20452;-39
2022/12/18 02:15:03;;;;;;;5.53;4.10;;;-0.50;99.90;;;;;;5050320;28;20639;-38
2022/12/18 02:17:39;;;;;;;5.33;3.80;;;-0.30;99.90;;;;;;5049312;28;20407;-39
2022/12/18 02:20:19;;;;;;;5.93;4.60;;;-0.40;99.90;;;;;;5049720;28;20777;-36
2022/12/18 02:23:22;;;;;;;4.30;3.70;;;-0.10;99.90;;;;;;5049369;28;20460;-39
2022/12/18 02:26:06;;;;;;;5.73;4.47;;;-0.20;99.90;;;;;;5049745;28;20382;-37
2022/12/18 02:28:37;;;;;;;5.97;4.27;;;-0.30;99.90;;;;;;5049248;28;20499;-39
2022/12/18 02:31:06;;;;;;;6.07;4.53;;;-0.40;99.90;;;;;;5049876;28;20408;-35
2022/12/18 02:33:34;;;;;;;7.50;4.37;;;-0.10;99.90;;;;;;5049158;28;20951;-37
2022/12/18 02:36:01;;;;;;;6.10;4.03;;;-0.10;99.90;;;;;;5048279;28;20782;-40
2022/12/18 02:38:28;;;;;;;9.43;5.00;;;-0.30;99.90;;;;;;5049382;28;20814;-35
2022/12/18 02:40:55;;;;;;;7.17;4.47;;;-0.20;99.90;;;;;;5049951;28;20379;-38
2022/12/18 02:43:20;;;;;;;5.73;3.97;;;-0.20;99.90;;;;;;5049355;28;20383;-40
2022/12/18 02:46:23;;;;;;;5.37;4.13;;;-0.40;99.90;;;;;;5048758;28;20773;-42
2022/12/18 02:48:49;;;;;;;6.30;4.00;;;-0.30;99.90;;;;;;5047564;28;20660;-39
2022/12/18 02:51:46;;;;;;;4.43;3.80;;;-0.20;99.90;;;;;;5049191;28;20778;-37
2022/12/18 02:54:31;;;;;;;6.73;4.40;;;-0.20;99.90;;;;;;5047720;28;20843;-38
2022/12/18 02:57:05;;;;;;;6.43;4.57;;;-0.20;99.90;;;;;;5047862;28;20543;-37
2022/12/18 02:59:38;;;;;;;4.53;3.30;;;-0.10;99.90;;;;;;5049064;28;21145;-39
2022/12/18 03:02:28;;;;;;;5.97;4.57;;;-0.20;99.90;;;;;;5049086;28;20454;-36
2022/12/18 03:05:05;;;;;;;6.37;4.50;;;-0.20;99.90;;;;;;5049194;28;20443;-39
2022/12/18 03:07:44;;;;;;;5.50;4.57;;;-0.40;99.90;;;;;;5048914;28;20754;-41
2022/12/18 03:10:14;;;;;;;5.20;3.80;;;-0.30;99.90;;;;;;5049055;28;20885;-40
2022/12/18 03:12:47;;;;;;;11.93;4.00;;;-0.10;99.90;;;;;;5048572;28;20405;-41
2022/12/18 03:15:20;;;;;;;5.00;4.03;;;-0.10;99.90;;;;;;5049026;28;20438;-40
2022/12/18 03:17:51;;;;;;;6.17;3.80;;;-0.20;99.90;;;;;;5048616;28;20383;-39
2022/12/18 03:20:21;;;;;;;5.00;4.40;;;-0.30;99.90;;;;;;5048715;28;20743;-39
2022/12/18 03:22:52;;;;;;;6.47;3.90;;;-0.20;99.90;;;;;;5030633;28;20532;-39
2022/12/18 03:25:18;;;;;;;5.27;4.07;;;-0.30;99.90;;;;;;5048663;28;20473;-35
2022/12/18 03:27:48;;;;;;;4.57;3.93;;;-0.20;99.90;;;;;;5049131;28;20562;-38
2022/12/18 03:30:16;;;;;;;4.30;3.90;;;-0.10;99.90;;;;;;5045211;28;20395;-36
2022/12/18 03:32:50;;;;;;;6.53;4.10;;;-0.40;99.90;;;;;;5048216;28;20455;-37
2022/12/18 03:35:22;;;;;;;5.13;4.27;;;-0.40;99.90;;;;;;5048551;28;20509;-36
2022/12/18 03:37:48;;;;;;;4.83;3.80;;;-0.20;99.90;;;;;;5048707;28;20452;-35
2022/12/18 03:40:13;;;;;;;5.87;4.50;;;-0.20;99.90;;;;;;5048420;28;20410;-38
2022/12/18 03:42:51;;;;;;;6.50;4.13;;;-0.20;99.90;;;;;;5048050;28;20733;-38
2022/12/18 03:45:20;;;;;;;5.07;3.80;;;-0.40;99.90;;;;;;5048623;28;20188;-36
2022/12/18 03:48:23;;;;;;;6.30;4.20;;;-0.40;99.90;;;;;;5048004;28;20404;-36
2022/12/18 03:50:59;;;;;;;7.60;4.70;;;-0.10;99.90;;;;;;5048893;28;20394;-39
2022/12/18 03:53:41;;;;;;;7.33;4.50;;;-0.30;99.90;;;;;;5047580;28;20474;-39
2022/12/18 03:56:09;;;;;;;5.43;4.00;;;-0.10;99.90;;;;;;5048716;28;20387;-39
2022/12/18 03:58:38;;;;;;;5.90;4.47;;;-0.40;99.90;;;;;;5047659;28;20466;-35
2022/12/18 04:01:07;;;;;;;6.30;4.30;;;-0.20;99.90;;;;;;5048610;28;20412;-36
2022/12/18 04:03:35;;;;;;;6.30;4.23;;;-0.30;99.90;;;;;;5047581;28;20421;-40
2022/12/18 04:06:02;;;;;;;5.27;3.93;;;-0.20;99.90;;;;;;5048024;28;20407;-40
2022/12/18 04:08:28;;;;;;;6.23;4.47;;;-0.30;99.90;;;;;;5045668;28;20409;-41
2022/12/18 04:10:54;;;;;;;5.93;4.20;;;-0.20;99.90;;;;;;5047877;28;20404;-41
2022/12/18 04:13:33;;;;;;;5.13;3.87;;;-0.30;99.90;;;;;;5047377;28;20462;-39
2022/12/18 04:15:59;;;;;;;6.43;4.13;;;-0.30;99.90;;;;;;5047262;28;20198;-40
2022/12/18 04:18:25;;;;;;;4.83;3.40;;;-0.40;99.90;;;;;;5044135;28;20464;-37
2022/12/18 04:20:51;;;;;;;5.33;4.30;;;-0.20;99.90;;;;;;5047543;28;20395;-39
2022/12/18 04:23:16;;;;;;;5.03;3.40;;;-0.20;99.90;;;;;;5047349;28;20966;-38
2022/12/18 04:25:42;;;;;;;4.27;3.50;;;-0.20;99.90;;;;;;5047690;28;20641;-39
2022/12/18 04:28:08;;;;;;;5.33;3.10;;;-0.20;99.90;;;;;;5047474;28;20189;-34
2022/12/18 04:30:33;;;;;;;4.70;3.67;;;-0.20;99.90;;;;;;5047259;28;20246;-40
2022/12/18 04:32:59;;;;;;;6.67;3.73;;;-0.10;99.90;;;;;;5047163;28;20194;-38
2022/12/18 04:35:25;;;;;;;5.30;3.93;;;-0.50;99.90;;;;;;5047580;28;20303;-40
2022/12/18 04:37:50;;;;;;;5.10;3.10;;;-0.20;99.90;;;;;;5047551;28;20193;-39
2022/12/18 04:40:16;;;;;;;4.17;3.23;;;-0.20;99.90;;;;;;5047277;28;20736;-41
2022/12/18 04:42:41;;;;;;;10.10;4.10;;;-0.40;99.90;;;;;;5047411;28;20185;-41
2022/12/18 04:45:08;;;;;;;6.40;3.50;;;-0.30;99.90;;;;;;5047043;28;20208;-39
2022/12/18 04:47:34;;;;;;;2.90;2.70;;;-0.40;99.90;;;;;;5047892;28;20182;-37
2022/12/18 04:49:59;;;;;;;4.90;3.20;;;-0.30;99.90;;;;;;5046866;28;20434;-40
2022/12/18 04:52:25;;;;;;;5.07;3.50;;;-0.40;99.90;;;;;;5047595;28;20631;-35
2022/12/18 04:54:51;;;;;;;5.60;3.30;;;-0.30;99.90;;;;;;5045666;28;20669;-37
2022/12/18 04:57:17;;;;;;;6.60;3.23;;;-0.30;99.90;;;;;;5047614;28;20189;-36
2022/12/18 04:59:43;;;;;;;3.67;2.90;;;-0.20;99.90;;;;;;5046807;28;20234;-37
2022/12/18 05:02:09;;;;;;;4.63;3.20;;;-0.30;99.90;;;;;;5047278;28;20391;-38
2022/12/18 05:04:35;;;;;;;3.43;2.63;;;-0.30;99.90;;;;;;5047069;28;20589;-41
2022/12/18 05:07:01;;;;;;;5.10;3.13;;;-0.60;99.90;;;;;;5045673;28;20189;-42
2022/12/18 05:09:26;;;;;;;3.90;2.70;;;-0.40;99.90;;;;;;5046779;28;20776;-36
2022/12/18 05:11:52;;;;;;;4.00;3.60;;;-0.60;99.90;;;;;;5046924;28;20194;-36
2022/12/18 05:14:18;;;;;;;4.63;3.37;;;-0.50;99.90;;;;;;5045187;28;20236;-35
2022/12/18 05:16:43;;;;;;;3.60;2.53;;;-0.50;99.90;;;;;;5046994;28;20190;-36
2022/12/18 05:19:09;;;;;;;4.23;3.13;;;-0.50;99.90;;;;;;5046778;28;20414;-34
2022/12/18 05:21:35;;;;;;;3.50;2.80;;;-0.20;99.90;;;;;;5050539;28;20234;-38
2022/12/18 05:24:00;;;;;;;3.43;2.90;;;-0.20;99.90;;;;;;5050610;28;20178;-36
2022/12/18 05:26:26;;;;;;;3.60;2.70;;;-0.10;99.90;;;;;;5051143;28;20196;-37
2022/12/18 05:28:51;;;;;;;4.70;3.23;;;-0.40;99.90;;;;;;5050303;28;20190;-37
2022/12/18 05:31:17;;;;;;;4.63;2.87;;;-0.10;99.90;;;;;;5050881;28;20197;-40
2022/12/18 05:33:43;;;;;;;4.37;2.90;;;-0.30;99.90;;;;;;5032690;28;20308;-39
2022/12/18 05:36:09;;;;;;;2.90;2.60;;;-0.50;99.90;;;;;;5050713;28;20240;-38
2022/12/18 05:38:37;;;;;;;4.60;3.50;;;-0.20;99.90;;;;;;5049069;28;20170;-38
2022/12/18 05:41:03;;;;;;;3.90;2.47;;;-0.40;99.90;;;;;;5049230;28;20417;-39
2022/12/18 05:43:30;;;;;;;4.53;2.70;;;-0.30;99.90;;;;;;5050214;28;20422;-38
2022/12/18 05:45:57;;;;;;;3.90;2.90;;;-0.40;99.90;;;;;;5050586;28;20939;-38
2022/12/18 05:48:23;;;;;;;3.70;2.70;;;-0.20;99.90;;;;;;5050357;28;20466;-39
2022/12/18 05:50:49;;;;;;;5.20;3.60;;;-0.30;99.90;;;;;;5050555;28;20485;-35
2022/12/18 05:53:19;;;;;;;4.90;3.10;;;-0.40;99.90;;;;;;5050654;28;20192;-39
2022/12/18 05:55:45;;;;;;;4.67;3.07;;;-0.20;99.90;;;;;;5051203;28;20416;-34
2022/12/18 05:58:12;;;;;;;4.43;3.07;;;-0.50;99.90;;;;;;5050064;28;20412;-37
2022/12/18 06:00:40;;;;;;;5.57;3.10;;;-0.40;99.90;;;;;;5048816;28;20876;-35
2022/12/18 06:03:06;;;;;;;5.43;3.33;;;-0.20;99.90;;;;;;5048571;28;20391;-41
2022/12/18 06:05:38;;;;;;;4.50;2.77;;;-0.10;99.90;;;;;;5050410;28;20414;-36
2022/12/18 06:08:04;;;;;;;5.17;3.00;;;-0.40;99.90;;;;;;5045751;28;20403;-37
2022/12/18 06:10:30;;;;;;;2.87;2.53;;;-0.30;99.90;;;;;;5049970;28;20728;-39
2022/12/18 06:12:55;;;;;;;4.83;3.03;;;-0.40;99.90;;;;;;5048186;28;20395;-41
2022/12/18 06:15:21;;;;;;;3.10;2.53;;;-0.40;99.90;;;;;;5048069;28;20217;-41
2022/12/18 06:17:47;;;;;;;4.77;3.47;;;-0.40;99.90;;;;;;5050010;28;20209;-41
2022/12/18 06:20:12;;;;;;;4.73;3.33;;;-0.30;99.90;;;;;;5049430;28;20284;-39
2022/12/18 06:22:38;;;;;;;4.10;2.70;;;-0.30;99.90;;;;;;5049861;28;20197;-40
2022/12/18 06:25:04;;;;;;;3.90;3.47;;;-0.50;99.90;;;;;;5048157;28;20213;-39
2022/12/18 06:27:30;;;;;;;4.33;2.80;;;-0.20;99.90;;;;;;5050045;28;20199;-41
2022/12/18 06:29:55;;;;;;;3.80;2.90;;;-0.50;99.90;;;;;;5049530;28;20473;-36
2022/12/18 06:32:21;;;;;;;8.60;3.67;;;-0.50;99.90;;;;;;5048553;28;20197;-41
2022/12/18 06:34:47;;;;;;;6.23;3.97;;;-0.30;99.90;;;;;;5049678;28;20764;-41
2022/12/18 06:37:12;;;;;;;5.17;3.80;;;-0.30;99.90;;;;;;5044278;28;20219;-37
2022/12/18 06:39:38;;;;;;;5.47;4.37;;;-0.50;99.90;;;;;;5047507;28;20289;-36
2022/12/18 06:42:04;;;;;;;4.57;3.63;;;-0.20;99.90;;;;;;5041558;28;20406;-37
2022/12/18 06:44:29;;;;;;;4.83;3.77;;;-0.60;99.90;;;;;;5045467;28;20194;-38
2022/12/18 06:46:55;;;;;;;6.53;4.23;;;-0.50;99.90;;;;;;5048937;28;20780;-35
2022/12/18 06:49:21;;;;;;;6.07;4.00;;;-0.30;99.90;;;;;;5046564;28;20185;-37
2022/12/18 06:51:46;;;;;;;5.40;3.57;;;-0.50;99.90;;;;;;5047604;28;20538;-39
2022/12/18 06:54:12;;;;;;;4.70;3.53;;;-0.50;99.90;;;;;;5047647;28;20206;-40
2022/12/18 06:56:38;;;;;;;4.50;3.80;;;-0.50;99.90;;;;;;5048253;28;20395;-36
2022/12/18 06:59:04;;;;;;;4.57;3.30;;;-0.30;99.90;;;;;;5047800;28;20186;-40
2022/12/18 07:01:29;;;;;;;5.00;3.73;;;-0.40;99.90;;;;;;5045700;28;20186;-35
2022/12/18 07:03:56;;;;;;;5.17;3.70;;;-0.60;99.90;;;;;;5046146;28;20354;-39
2022/12/18 07:06:24;;;;;;;6.40;3.77;;;-0.50;99.90;;;;;;5047935;28;20245;-38
2022/12/18 07:08:50;;;;;;;7.00;4.00;;;-0.50;99.90;;;;;;5046680;28;20424;-39
2022/12/18 07:11:16;;;;;;;5.90;3.60;;;-0.30;99.90;;;;;;5047737;28;20779;-39
2022/12/18 07:13:43;;;;;;;5.63;4.00;;;-0.50;99.90;;;;;;5048153;28;20422;-38
2022/12/18 07:16:14;;;;;;;4.60;3.40;;;-0.50;99.90;;;;;;5046286;28;20391;-39
2022/12/18 07:18:39;;;;;;;4.30;3.40;;;-0.40;99.90;;;;;;5042175;28;20772;-39
2022/12/18 07:21:12;;;;;;;5.77;4.03;;;-0.30;99.90;;;;;;5047871;28;20390;-37
2022/12/18 07:23:38;;;;;;;7.10;3.87;;;-0.30;99.90;;;;;;5039853;28;20177;-39
2022/12/18 07:26:09;;;;;;;6.30;3.80;;;-0.30;99.90;;;;;;5047147;28;20421;-36
2022/12/18 07:28:36;;;;;;;7.23;4.10;;;-0.30;99.90;;;;;;5040271;28;20904;-39
2022/12/18 07:31:07;;;;;;;4.43;3.63;;;-0.30;99.90;;;;;;5047903;28;20445;-40
2022/12/18 07:33:34;;;;;;;6.80;3.13;;;-0.30;99.90;;;;;;5047338;28;20440;-40
2022/12/18 07:36:04;;;;;;;7.70;3.97;;;-0.40;99.90;;;;;;5046429;28;20891;-40
2022/12/18 07:38:31;;;;;;;4.67;3.30;;;-0.40;99.90;;;;;;5047104;28;20463;-38
2022/12/18 07:41:05;;;;;;;4.10;3.13;;;-0.30;99.90;;;;;;5048015;28;20553;-40
2022/12/18 07:43:31;;;;;;;6.57;4.30;;;-0.30;99.90;;;;;;5047075;28;20404;-39
2022/12/18 07:45:56;;;;;;;7.53;4.07;;;-0.40;99.90;;;;;;5047391;28;20391;-41
2022/12/18 07:48:22;;;;;;;5.73;3.40;;;-0.20;99.90;;;;;;5047510;28;20811;-41
2022/12/18 07:50:48;;;;;;;7.13;3.90;;;-0.10;99.90;;;;;;5045528;28;20558;-37
2022/12/18 07:53:14;;;;;;;5.87;3.70;;;-0.40;99.90;;;;;;5047482;28;20277;-35
2022/12/18 07:55:41;;;;;;;4.67;3.47;;;-0.40;99.90;;;;;;5047190;28;20460;-36
2022/12/18 07:58:07;;;;;;;4.33;3.20;;;-0.20;99.90;;;;;;5047970;28;20223;-40
2022/12/18 08:00:34;;;;;;;4.37;2.93;;;-0.20;99.90;;;;;;5048177;28;20424;-36
2022/12/18 08:02:59;;;;;;;5.47;2.97;;;-0.10;99.90;;;;;;5044165;28;20396;-36
2022/12/18 08:05:25;;;;;;;6.37;3.20;;;-0.20;99.90;;;;;;5037158;28;20440;-34
2022/12/18 08:07:51;;;;;;;5.33;3.23;;;-0.20;99.90;;;;;;5038124;28;20688;-38
2022/12/18 08:10:17;;;;;;;5.00;3.70;;;-0.20;99.90;;;;;;5037584;28;20479;-38
2022/12/18 08:12:43;;;;;;;5.83;3.20;;;0.00;99.90;;;;;;5032352;28;20579;-40
2022/12/18 08:15:09;;;;;;;4.37;3.07;;;-0.20;99.80;;;;;;5046648;28;20460;-39
2022/12/18 08:17:34;;;;;;;4.67;3.73;;;0.00;99.90;;;;;;5043678;28;20182;-39
2022/12/18 08:20:00;;;;;;;5.27;3.50;;;-0.10;99.30;;;;;;5045906;28;20399;-41
2022/12/18 08:22:26;;;;;;;5.80;3.10;;;0.10;99.60;;;;;;5048003;28;20270;-42
2022/12/18 08:24:51;;;;;;;5.33;3.17;;;0.20;99.50;;;;;;5047838;28;20194;-36
2022/12/18 08:27:17;;;;;;;4.20;2.80;;;0.30;99.00;;;;;;5046792;28;20185;-37
2022/12/18 08:29:43;;;;;;;4.17;2.70;;;0.30;98.70;;;;;;5047348;28;20190;-40
2022/12/18 08:32:08;;;;;;;4.10;2.73;;;0.30;98.40;;;;;;5048207;28;20174;-37
2022/12/18 08:34:34;;;;;;;3.17;2.60;;;0.50;98.70;;;;;;5040855;28;20216;-38
2022/12/18 08:37:00;;;;;;;4.20;3.00;;;0.80;97.90;;;;;;5028260;28;20194;-36
2022/12/18 08:39:26;;;;;;;3.50;2.63;;;1.00;97.60;;;;;;5039936;28;20285;-41
2022/12/18 08:44:41;;;;;;;3.93;3.00;;;1.50;96.50;;;;;;5034878;28;20210;-36
2022/12/18 08:47:07;;;;;;;4.70;3.00;;;1.80;95.80;;;;;;5032448;28;20525;-40
2022/12/18 08:49:34;;;;;;;3.87;2.90;;;2.10;95.50;;;;;;5042814;28;20428;-41
2022/12/18 08:52:00;;;;;;;5.00;2.67;;;2.00;95.10;;;;;;5027392;28;20452;-40
2022/12/18 08:54:26;;;;;;;3.93;2.87;;;2.40;94.90;;;;;;5040383;28;20456;-36
2022/12/18 08:56:52;;;;;;;4.63;3.33;;;2.50;94.10;;;;;;5047851;28;20577;-41
2022/12/18 08:59:18;;;;;;;3.93;2.83;;;2.50;93.90;;;;;;5035555;28;20527;-38
2022/12/18 09:01:45;;;;;;;3.57;3.20;;;2.70;94.20;;;;;;5030419;28;20429;-36
2022/12/18 09:04:11;;;;;;;4.40;3.40;;;3.10;93.60;;;;;;5031017;28;20428;-42
2022/12/18 09:06:37;;;;;;;3.53;3.10;;;3.20;93.20;;;;;;5031715;28;20893;-37
2022/12/18 09:09:04;;;;;;;4.37;3.20;;;3.30;92.00;;;;;;5029239;28;20482;-32
2022/12/18 09:11:31;;;;;;;4.40;3.17;;;3.30;92.00;;;;;;5031775;28;20779;-39
2022/12/18 09:13:57;;;;;;;3.67;2.90;;;3.50;92.10;;;;;;5039273;28;20447;-39
2022/12/18 09:16:25;;;;;;;3.93;2.87;;;3.40;92.00;;;;;;5048047;28;20538;-39
2022/12/18 09:18:53;;;;;;;4.20;2.70;;;3.40;91.90;;;;;;5042588;28;20420;-35
2022/12/18 09:21:20;;;;;;;5.47;2.63;;;3.40;91.40;;;;;;5038220;28;20460;-36
2022/12/18 09:23:50;;;;;;;4.43;3.17;;;3.70;91.10;;;;;;5031015;28;20514;-39
2022/12/18 09:26:16;;;;;;;3.97;2.80;;;3.50;91.20;;;;;;5038040;28;20424;-35
2022/12/18 09:28:42;;;;;;;3.20;2.60;;;3.60;91.50;;;;;;5041825;28;20428;-39
2022/12/18 09:31:09;;;;;;;4.50;3.13;;;3.50;90.90;;;;;;5034502;28;20940;-39
2022/12/18 09:33:38;;;;;;;3.30;2.70;;;3.30;91.20;;;;;;5041086;28;20432;-39
2022/12/18 09:36:07;;;;;;;3.27;2.97;;;3.50;90.40;;;;;;5047428;28;20427;-38
2022/12/18 09:38:34;;;;;;;3.90;3.10;;;3.60;90.30;;;;;;5043053;28;20502;-40
2022/12/18 09:41:35;;;;;;;4.67;2.80;;;3.90;90.90;;;;;;5048869;28;20455;-39
2022/12/18 09:44:09;;;;;;;2.80;2.30;;;4.00;89.40;;;;;;5045601;28;20460;-36
2022/12/18 09:46:44;;;;;;;4.10;2.50;;;4.30;89.50;;;;;;5045958;28;20577;-42
2022/12/18 09:49:17;;;;;;;2.87;2.37;;;4.40;87.90;;;;;;5043967;28;20462;-38
2022/12/18 09:51:51;;;;;;;4.40;2.33;;;4.30;87.40;;;;;;5046262;28;20444;-39
2022/12/18 09:54:25;;;;;;;3.90;2.33;;;4.60;89.10;;;;;;5046868;28;20478;-41
2022/12/18 09:56:51;;;;;;;3.93;2.33;;;4.50;87.10;;;;;;5043521;28;20919;-37
2022/12/18 09:59:34;;;;;;;3.33;2.57;;;4.50;86.00;;;;;;5047534;28;20484;-39
2022/12/18 10:01:59;;;;;;;3.90;2.63;;;4.50;86.70;;;;;;5042794;28;20564;-41
2022/12/18 10:04:30;;;;;;;4.17;2.70;;;4.30;85.10;;;;;;5046339;28;20502;-42
2022/12/18 10:07:12;;;;;;;3.10;2.40;;;4.30;85.10;;;;;;5044224;28;20639;-37
2022/12/18 10:09:41;;;;;;;3.80;2.90;;;4.20;84.20;;;;;;5045616;28;20456;-39
2022/12/18 10:12:20;;;;;;;3.80;2.60;;;4.20;84.20;;;;;;5043605;28;20448;-39
2022/12/18 10:14:55;;;;;;;2.57;2.30;;;4.10;84.20;;;;;;5046130;28;20467;-32
2022/12/18 10:18:12;;;;;;;3.67;3.00;;;4.10;85.70;;;;;;5045982;28;20515;-39
2022/12/18 10:20:43;;;;;;;4.30;2.17;;;4.10;86.70;;;;;;5031678;28;20429;-37
2022/12/18 10:23:15;;;;;;;6.40;2.60;;;4.00;86.40;;;;;;5033812;28;20456;-39
2022/12/18 10:25:48;;;;;;;4.60;2.70;;;4.30;85.90;;;;;;5033874;28;20810;-38
2022/12/18 10:28:17;;;;;;;3.53;2.50;;;4.10;85.80;;;;;;5041960;28;20453;-37
2022/12/18 10:30:43;;;;;;;3.40;2.60;;;3.90;85.10;;;;;;5035005;28;20459;-38
2022/12/18 10:33:19;;;;;;;5.23;2.43;;;3.80;85.60;;;;;;5032770;28;20445;-39
2022/12/18 10:35:46;;;;;;;3.10;2.63;;;3.90;86.80;;;;;;5036981;28;20571;-38
2022/12/18 10:38:12;;;;;;;4.40;2.80;;;3.80;86.70;;;;;;5045608;28;20840;-40
2022/12/18 10:40:58;;;;;;;5.00;2.90;;;3.70;86.70;;;;;;5040000;28;20476;-39
2022/12/18 10:43:32;;;;;;;4.80;2.77;;;3.90;86.00;;;;;;5039852;28;20213;-39
2022/12/18 10:46:16;;;;;;;4.40;2.63;;;3.90;85.60;;;;;;5039484;28;20509;-41
2022/12/18 10:48:49;;;;;;;3.87;2.60;;;3.70;84.90;;;;;;5039741;28;20600;-38
2022/12/18 10:51:30;;;;;;;4.07;2.47;;;3.70;85.20;;;;;;5045403;28;20921;-40
2022/12/18 10:54:16;;;;;;;3.53;2.67;;;3.90;86.70;;;;;;5036259;28;20904;-40
2022/12/18 10:56:42;;;;;;;4.07;2.50;;;3.90;87.00;;;;;;5035602;28;20448;-40
2022/12/18 10:59:10;;;;;;;3.20;2.90;;;3.90;84.00;;;;;;5047417;28;20586;-36
2022/12/18 11:01:52;;;;;;;6.07;3.23;;;4.00;83.90;;;;;;5038006;28;20453;-37
2022/12/18 11:04:23;;;;;;;4.37;2.77;;;3.90;84.40;;;;;;5032126;28;20477;-37
2022/12/18 11:06:53;;;;;;;3.80;2.90;;;4.00;85.60;;;;;;5035908;28;20492;-36
2022/12/18 11:09:24;;;;;;;4.60;2.90;;;3.70;82.80;;;;;;5031099;28;20473;-39
2022/12/18 11:12:01;;;;;;;2.50;2.30;;;3.90;84.50;;;;;;5046291;28;20799;-37
2022/12/18 11:14:33;;;;;;;6.20;3.40;;;4.00;84.20;;;;;;5038002;28;20513;-37
2022/12/18 11:17:00;;;;;;;5.23;3.23;;;3.90;84.40;;;;;;5045103;28;20479;-38
2022/12/18 11:19:33;;;;;;;3.80;2.77;;;3.80;83.60;;;;;;5033431;28;20983;-38
2022/12/18 11:22:01;;;;;;;3.90;2.87;;;3.80;86.10;;;;;;5041355;28;20970;-38
2022/12/18 11:24:33;;;;;;;3.90;3.07;;;3.90;85.00;;;;;;5040521;28;20455;-38
2022/12/18 11:27:02;;;;;;;4.63;3.30;;;4.10;84.10;;;;;;5037278;28;20468;-35
2022/12/18 11:29:33;;;;;;;4.63;2.83;;;4.00;83.20;;;;;;5033311;28;20453;-37
2022/12/18 11:32:26;;;;;;;5.80;3.70;;;3.80;83.40;;;;;;5042905;28;20429;-39
2022/12/18 11:35:14;;;;;;;4.13;3.07;;;3.90;83.70;;;;;;5036024;28;20475;-35
2022/12/18 11:37:43;;;;;;;3.50;2.60;;;3.90;82.70;;;;;;5043506;28;20425;-40
2022/12/18 11:40:22;;;;;;;4.53;3.03;;;3.90;83.60;;;;;;5045748;28;20913;-34
2022/12/18 11:43:04;;;;;;;4.40;3.13;;;4.00;84.20;;;;;;5042988;28;20439;-39
2022/12/18 11:45:36;;;;;;;4.97;3.50;;;4.00;81.90;;;;;;5041538;28;20519;-38
2022/12/18 11:48:17;;;;;;;3.73;2.70;;;3.90;83.10;;;;;;5046422;28;20487;-39
2022/12/18 11:50:54;;;;;;;5.17;2.93;;;4.00;83.10;;;;;;5045629;28;20466;-39
2022/12/18 11:53:20;;;;;;;5.50;3.23;;;3.90;83.50;;;;;;5044584;28;20466;-35
2022/12/18 11:55:50;;;;;;;5.03;2.80;;;4.10;81.80;;;;;;5041998;28;20982;-40
2022/12/18 11:58:34;;;;;;;5.10;3.00;;;3.80;82.60;;;;;;5043696;28;20455;-37
2022/12/18 12:01:33;;;;;;;4.37;3.00;;;3.80;82.40;;;;;;5040847;28;20448;-39
2022/12/18 12:04:30;;;;;;;3.63;3.23;;;3.80;81.10;;;;;;5046671;28;20427;-38
2022/12/18 12:07:13;;;;;;;4.67;3.43;;;4.00;82.30;;;;;;5044477;28;20416;-38
2022/12/18 12:10:02;;;;;;;5.23;3.27;;;3.80;81.80;;;;;;5045238;28;20511;-38
2022/12/18 12:12:56;;;;;;;4.90;3.60;;;3.80;81.90;;;;;;5047814;28;20424;-39
2022/12/18 12:15:51;;;;;;;3.27;2.40;;;4.00;83.50;;;;;;5035227;28;20843;-36
2022/12/18 12:18:19;;;;;;;4.90;3.57;;;3.90;82.00;;;;;;5047991;28;20443;-42
2022/12/18 12:21:06;;;;;;;4.40;3.20;;;4.00;82.70;;;;;;5047797;28;20424;-38
2022/12/18 12:24:08;;;;;;;5.60;3.50;;;4.00;81.50;;;;;;5040923;28;20436;-38
2022/12/18 12:26:56;;;;;;;4.07;3.27;;;3.90;81.80;;;;;;5047270;28;20527;-40
2022/12/18 12:29:53;;;;;;;5.63;3.70;;;3.80;82.80;;;;;;5047463;28;20891;-41
2022/12/18 12:33:02;;;;;;;4.57;3.60;;;4.00;82.40;;;;;;5026482;28;20430;-41
2022/12/18 12:35:49;;;;;;;5.30;3.17;;;4.00;82.10;;;;;;5031560;28;20460;-42
2022/12/18 12:38:27;;;;;;;5.33;3.27;;;3.90;80.90;;;;;;5046872;28;20452;-40
2022/12/18 12:41:03;;;;;;;5.97;4.33;;;3.70;81.30;;;;;;5046370;28;20443;-39
2022/12/18 12:43:42;;;;;;;6.67;3.70;;;3.80;81.90;;;;;;5047415;28;20413;-39
2022/12/18 12:46:13;;;;;;;5.23;3.80;;;3.70;82.90;;;;;;5047910;28;20439;-39
2022/12/18 12:48:48;;;;;;;5.70;3.93;;;3.70;84.50;;;;;;5047521;28;20455;-37
2022/12/18 12:51:34;;;;;;;5.90;3.73;;;3.70;84.80;;;;;;5045984;28;20435;-37
2022/12/18 12:54:02;;;;;;;5.20;3.77;;;3.80;85.60;;;;;;5046268;28;20447;-37
2022/12/18 12:56:57;;;;;;;5.70;4.43;;;3.90;86.70;;;;;;5042812;28;20889;-33
2022/12/18 12:59:49;;;;;;;4.80;3.90;;;3.70;86.70;;;;;;5045913;28;20469;-39
2022/12/18 13:02:23;;;;;;;4.13;3.70;;;3.60;85.40;;;;;;5043318;28;20409;-38
2022/12/18 13:05:27;;;;;;;6.73;4.87;;;3.70;86.60;;;;;;5045855;28;20424;-38
2022/12/18 13:08:10;;;;;;;5.97;4.10;;;3.90;87.10;;;;;;5038657;28;20481;-39
2022/12/18 13:10:42;;;;;;;6.70;4.43;;;3.70;86.00;;;;;;5047044;28;20485;-38
2022/12/18 13:13:15;;;;;;;7.50;4.00;;;3.60;86.00;;;;;;5033575;28;20844;-39